Time;durP1;ratioP1;P1;durP2;ratioP2;P2;SDS_P1;SDS_P2;PMS_P1;PMS_P2;Temp;Humidity;BMP_temperature;BMP_pressure;BME280_temperature;BME280_humidity;BME280_pressure;Samples;Min_cycle;Max_cycle;Signal;HPM_P1;HPM_P2
2021/10/11 00:02:47;;;;;;;5.05;2.92;;;16.50;55.90;;;;;;20971328;28;20040;-81
2021/10/11 00:12:48;;;;;;;4.97;2.78;;;16.40;55.80;;;;;;20939546;28;20556;-81
2021/10/11 00:22:50;;;;;;;3.63;2.35;;;16.40;55.80;;;;;;20968069;28;20470;-80
2021/10/11 00:32:50;;;;;;;4.22;2.90;;;16.40;55.70;;;;;;20969167;28;20121;-81
2021/10/11 00:42:51;;;;;;;4.97;2.83;;;16.50;55.70;;;;;;20952776;28;20052;-82
2021/10/11 00:52:52;;;;;;;5.73;3.30;;;16.40;55.70;;;;;;20948204;28;20059;-81
2021/10/11 01:02:53;;;;;;;4.10;2.60;;;16.40;55.60;;;;;;20949595;28;20302;-81
2021/10/11 01:12:53;;;;;;;5.15;2.88;;;16.40;55.60;;;;;;20949320;28;20047;-81
2021/10/11 01:22:54;;;;;;;3.78;2.50;;;16.40;55.60;;;;;;20948642;28;20076;-81
2021/10/11 01:32:56;;;;;;;4.82;2.95;;;16.50;55.60;;;;;;20982355;28;20057;-81
2021/10/11 01:42:57;;;;;;;4.22;3.03;;;16.40;55.60;;;;;;20963766;28;20045;-81
2021/10/11 01:53:00;;;;;;;4.30;2.75;;;16.40;55.60;;;;;;20929984;28;20031;-81
2021/10/11 02:03:06;;;;;;;3.70;2.70;;;16.50;55.60;;;;;;20962327;28;20056;-80
2021/10/11 02:13:08;;;;;;;5.00;2.85;;;16.40;55.60;;;;;;20945634;28;20028;-80
2021/10/11 02:23:09;;;;;;;5.82;3.08;;;16.40;55.60;;;;;;20943816;28;20040;-81
2021/10/11 02:33:10;;;;;;;6.80;2.97;;;16.40;56.30;;;;;;20959406;28;20421;-80
2021/10/11 02:43:12;;;;;;;5.60;3.10;;;16.40;55.70;;;;;;20943265;28;20040;-80
2021/10/11 02:53:13;;;;;;;4.72;2.92;;;16.40;55.80;;;;;;20925803;28;20122;-80
2021/10/11 03:03:15;;;;;;;4.88;3.15;;;16.50;55.80;;;;;;20958381;28;20048;-80
2021/10/11 03:13:17;;;;;;;5.07;3.10;;;16.40;55.90;;;;;;20957110;28;20071;-81
2021/10/11 03:23:18;;;;;;;5.13;3.25;;;16.40;55.90;;;;;;20940147;28;20036;-80
2021/10/11 03:33:18;;;;;;;4.78;3.15;;;16.40;56.00;;;;;;20957688;28;20062;-80
2021/10/11 03:43:19;;;;;;;3.35;2.70;;;16.40;56.10;;;;;;20972556;28;20529;-77
2021/10/11 03:53:19;;;;;;;6.60;3.40;;;16.40;56.10;;;;;;20964185;28;20058;-78
2021/10/11 04:03:20;;;;;;;4.78;3.20;;;16.40;56.20;;;;;;20939609;28;20067;-79
2021/10/11 04:13:21;;;;;;;5.93;3.33;;;16.40;56.30;;;;;;20925802;28;20483;-79
2021/10/11 04:23:22;;;;;;;7.38;3.28;;;16.40;56.30;;;;;;20941316;28;20075;-82
2021/10/11 04:33:23;;;;;;;5.53;3.15;;;16.40;56.50;;;;;;20973357;28;20036;-83
2021/10/11 04:43:25;;;;;;;6.30;3.53;;;16.40;56.50;;;;;;20978191;28;20056;-84
2021/10/11 04:53:26;;;;;;;5.05;3.53;;;16.40;56.70;;;;;;20987723;28;20024;-82
2021/10/11 05:03:27;;;;;;;6.53;3.85;;;16.40;56.80;;;;;;20947489;28;20051;-79
2021/10/11 05:13:27;;;;;;;6.87;3.47;;;16.40;56.80;;;;;;20948702;28;20036;-78
2021/10/11 05:23:30;;;;;;;6.10;3.72;;;16.40;57.00;;;;;;20953767;28;20780;-75
2021/10/11 05:33:30;;;;;;;7.25;4.25;;;16.40;57.10;;;;;;20978330;28;20090;-77
2021/10/11 05:43:31;;;;;;;24.15;6.88;;;16.40;57.20;;;;;;20976221;28;20379;-80
2021/10/11 05:53:32;;;;;;;7.32;4.40;;;16.30;57.40;;;;;;20962228;28;20489;-79
2021/10/11 06:03:32;;;;;;;9.35;5.40;;;16.40;57.50;;;;;;20942022;28;20449;-78
2021/10/11 06:13:34;;;;;;;10.05;5.32;;;16.30;57.60;;;;;;20916557;28;20032;-79
2021/10/11 06:23:35;;;;;;;10.80;6.05;;;16.30;57.70;;;;;;20913740;28;20048;-79
2021/10/11 06:33:36;;;;;;;9.10;4.88;;;16.30;57.80;;;;;;20960388;28;20040;-79
2021/10/11 06:43:36;;;;;;;11.43;5.60;;;16.30;58.00;;;;;;20957657;28;20659;-79
2021/10/11 06:53:37;;;;;;;11.15;5.97;;;16.30;58.10;;;;;;20957763;28;20063;-76
2021/10/11 07:03:38;;;;;;;7.35;4.68;;;16.30;58.30;;;;;;20952384;28;20391;-78
2021/10/11 07:13:38;;;;;;;8.75;5.80;;;16.30;58.40;;;;;;20953146;28;20033;-79
2021/10/11 07:23:39;;;;;;;8.82;5.40;;;16.30;58.50;;;;;;20921787;28;20590;-78
2021/10/11 07:33:40;;;;;;;10.35;5.22;;;16.20;58.70;;;;;;20954466;28;20040;-79
2021/10/11 07:43:42;;;;;;;9.40;5.40;;;16.20;58.80;;;;;;20969985;28;20068;-79
2021/10/11 07:53:43;;;;;;;8.35;5.43;;;16.30;58.90;;;;;;20921983;28;20071;-79
2021/10/11 08:03:44;;;;;;;7.38;4.80;;;16.20;59.70;;;;;;20961806;28;20531;-78
2021/10/11 08:13:45;;;;;;;7.50;4.88;;;16.20;59.20;;;;;;20951545;28;20033;-79
2021/10/11 08:23:45;;;;;;;7.47;4.72;;;16.30;59.40;;;;;;20950933;28;20035;-77
2021/10/11 08:33:46;;;;;;;8.45;5.20;;;16.30;59.40;;;;;;20938373;28;20044;-77
2021/10/11 08:43:47;;;;;;;7.43;4.53;;;16.30;59.40;;;;;;20963918;28;20071;-76
2021/10/11 08:53:47;;;;;;;6.05;3.97;;;16.30;59.30;;;;;;20964276;28;20111;-77
2021/10/11 09:03:48;;;;;;;6.85;4.43;;;16.40;59.40;;;;;;20962593;28;20031;-76
2021/10/11 09:13:53;;;;;;;4.50;3.05;;;16.30;59.50;;;;;;20928906;28;20032;-77
2021/10/11 09:24:07;;;;;;;7.00;3.65;;;16.30;59.50;;;;;;20946365;28;20037;-78
2021/10/11 09:34:09;;;;;;;6.43;4.03;;;16.30;59.70;;;;;;20961112;28;20470;-78
2021/10/11 09:44:11;;;;;;;7.78;3.53;;;16.30;59.90;;;;;;20943490;28;20048;-77
2021/10/11 09:54:12;;;;;;;7.18;3.85;;;16.30;59.90;;;;;;20926486;28;20037;-76
2021/10/11 10:04:35;;;;;;;6.82;3.97;;;16.30;60.10;;;;;;20975181;28;20089;-78
2021/10/11 10:14:36;;;;;;;7.93;3.70;;;16.30;60.30;;;;;;20927627;28;20483;-79
2021/10/11 10:24:37;;;;;;;8.95;3.80;;;16.30;60.50;;;;;;20957076;28;20032;-79
2021/10/11 10:44:53;;;;;;;7.40;3.53;;;16.20;61.10;;;;;;20835323;28;20308;-79
2021/10/11 10:54:57;;;;;;;5.28;3.00;;;16.20;61.10;;;;;;20792330;28;20387;-78
2021/10/11 11:05:04;;;;;;;4.53;2.90;;;16.20;61.30;;;;;;20758597;28;20037;-76
2021/10/11 11:15:10;;;;;;;4.78;2.33;;;16.20;61.40;;;;;;20830464;28;20376;-80
2021/10/11 11:25:11;;;;;;;8.87;3.40;;;16.20;61.50;;;;;;20873681;28;20494;-78
2021/10/11 11:35:20;;;;;;;5.85;2.80;;;16.20;61.40;;;;;;20878013;28;20063;-79
2021/10/11 11:45:23;;;;;;;6.78;2.40;;;16.30;61.30;;;;;;20859566;28;20048;-80
2021/10/11 11:55:25;;;;;;;4.82;2.58;;;16.30;61.20;;;;;;20831959;28;20060;-85
2021/10/11 12:05:27;;;;;;;3.78;2.30;;;16.40;61.10;;;;;;20827183;28;20437;-87
2021/10/11 12:15:28;;;;;;;4.43;2.38;;;16.40;60.80;;;;;;20853085;28;20402;-86
2021/10/11 12:25:33;;;;;;;6.05;2.30;;;16.50;60.70;;;;;;20823615;28;20103;-87
2021/10/11 12:35:35;;;;;;;4.88;1.98;;;16.50;60.50;;;;;;20831492;28;20076;-85
2021/10/11 12:45:36;;;;;;;3.38;2.00;;;16.60;60.40;;;;;;20807271;28;20138;-84
2021/10/11 12:55:38;;;;;;;5.63;1.63;;;16.60;60.30;;;;;;20807674;28;20493;-83
2021/10/11 13:05:39;;;;;;;4.45;1.42;;;16.60;60.20;;;;;;20811846;28;20036;-77
2021/10/11 13:15:39;;;;;;;2.95;1.10;;;16.60;60.10;;;;;;20851207;28;20033;-81
2021/10/11 13:25:42;;;;;;;4.07;1.63;;;16.60;60.10;;;;;;20868432;28;20037;-81
2021/10/11 15:59:48;;;;;;;1.08;0.68;;;18.20;55.30;;;;;;20875734;28;20065;-76
2021/10/11 16:09:49;;;;;;;2.47;0.50;;;17.70;56.60;;;;;;20872277;28;20820;-76
2021/10/11 16:19:50;;;;;;;2.00;0.73;;;17.40;57.70;;;;;;20814583;28;20038;-73
2021/10/11 16:29:52;;;;;;;1.42;0.80;;;17.10;58.50;;;;;;20802593;28;20781;-76
2021/10/11 16:39:52;;;;;;;1.63;0.50;;;16.90;59.00;;;;;;20690075;28;20041;-73
2021/10/11 16:49:53;;;;;;;3.90;0.70;;;16.90;59.30;;;;;;20722196;28;20477;-77
2021/10/11 16:59:55;;;;;;;1.27;0.67;;;16.90;59.40;;;;;;20706565;28;20042;-77
2021/10/11 17:09:56;;;;;;;2.78;0.95;;;16.90;59.50;;;;;;20781598;28;20798;-75
2021/10/11 17:20:02;;;;;;;1.95;0.85;;;17.00;59.50;;;;;;20733490;28;20025;-77
2021/10/11 17:30:32;;;;;;;2.33;0.85;;;17.10;59.40;;;;;;20780747;28;20030;-76
2021/10/11 17:40:48;;;;;;;1.38;0.50;;;17.10;59.40;;;;;;20829662;28;20046;-77
2021/10/11 17:50:49;;;;;;;1.88;0.57;;;17.10;59.30;;;;;;20794529;28;20064;-79
2021/10/11 18:00:50;;;;;;;2.72;0.77;;;17.10;59.30;;;;;;20780958;28;20083;-76
2021/10/11 18:10:50;;;;;;;0.30;0.30;;;17.10;59.30;;;;;;20812721;28;20026;-82
2021/10/11 18:21:01;;;;;;;1.33;0.65;;;17.10;59.30;;;;;;20782677;28;20029;-83
2021/10/11 18:31:02;;;;;;;1.60;0.60;;;17.20;59.40;;;;;;20795670;28;20045;-82
2021/10/11 18:41:03;;;;;;;1.70;0.60;;;17.10;59.40;;;;;;20755677;28;20069;-82
2021/10/11 18:51:05;;;;;;;1.02;0.57;;;17.10;59.40;;;;;;20741455;28;20456;-81
2021/10/11 19:01:07;;;;;;;0.88;0.50;;;17.10;59.50;;;;;;20767676;28;20069;-83
2021/10/11 19:11:10;;;;;;;1.63;0.50;;;17.10;59.50;;;;;;20774065;28;20046;-83
2021/10/11 19:21:10;;;;;;;2.33;0.70;;;17.10;59.60;;;;;;20752148;28;20119;-82
2021/10/11 19:31:11;;;;;;;1.05;0.60;;;17.10;59.60;;;;;;20767230;28;20025;-82
2021/10/11 19:41:13;;;;;;;1.15;0.50;;;17.20;59.70;;;;;;20739811;28;20076;-82
2021/10/11 19:51:21;;;;;;;2.15;0.75;;;17.10;59.60;;;;;;20809010;28;20040;-83
2021/10/11 20:01:22;;;;;;;1.10;0.45;;;17.10;59.60;;;;;;20822950;28;20092;-83
2021/10/11 20:11:23;;;;;;;0.98;0.40;;;17.10;59.60;;;;;;20809391;28;20073;-82
2021/10/11 20:21:24;;;;;;;1.15;0.68;;;17.10;59.70;;;;;;20808927;28;20071;-82
2021/10/11 20:31:26;;;;;;;1.95;0.68;;;17.00;59.70;;;;;;20823579;28;20033;-81
2021/10/11 20:41:26;;;;;;;2.30;0.90;;;17.10;59.60;;;;;;20806677;28;20041;-83
2021/10/11 20:51:27;;;;;;;2.22;0.50;;;17.10;59.60;;;;;;20789024;28;20696;-83
2021/10/11 21:01:27;;;;;;;1.52;0.73;;;17.00;59.60;;;;;;20805436;28;20392;-82
2021/10/11 21:11:28;;;;;;;3.03;0.80;;;17.00;59.70;;;;;;20772062;28;20080;-82
2021/10/11 21:21:29;;;;;;;1.20;0.40;;;17.00;59.60;;;;;;20787025;28;20038;-83
2021/10/11 21:31:29;;;;;;;2.08;0.60;;;17.00;59.70;;;;;;20786461;28;20129;-82
2021/10/11 21:41:30;;;;;;;1.27;0.50;;;17.00;59.60;;;;;;20784079;28;20057;-83
2021/10/11 21:51:31;;;;;;;0.77;0.40;;;17.00;59.60;;;;;;20784692;28;20037;-81
2021/10/11 22:01:32;;;;;;;0.90;0.38;;;17.00;59.60;;;;;;20783833;28;20128;-82
2021/10/11 22:11:33;;;;;;;1.00;0.52;;;17.00;59.60;;;;;;20798481;28;20045;-81
2021/10/11 22:21:34;;;;;;;0.57;0.57;;;17.00;59.60;;;;;;20797766;28;20047;-81
2021/10/11 22:31:34;;;;;;;1.38;0.70;;;17.00;59.60;;;;;;20798800;28;20288;-82
2021/10/11 22:41:35;;;;;;;1.55;0.85;;;16.90;59.60;;;;;;20766059;28;20037;-83
2021/10/11 22:51:42;;;;;;;3.63;0.68;;;16.90;59.60;;;;;;20797837;28;20037;-82
2021/10/11 23:01:43;;;;;;;2.45;0.57;;;16.90;59.50;;;;;;20780371;28;20053;-82
2021/10/11 23:11:44;;;;;;;3.33;0.70;;;16.90;59.60;;;;;;20794473;28;20050;-82
2021/10/11 23:21:44;;;;;;;0.65;0.40;;;16.90;59.60;;;;;;20762615;28;20099;-82
2021/10/11 23:31:46;;;;;;;1.23;0.35;;;16.90;59.60;;;;;;20783416;28;20440;-81
2021/10/11 23:41:46;;;;;;;0.82;0.30;;;16.90;59.60;;;;;;20778496;28;20049;-84
2021/10/11 23:51:47;;;;;;;2.30;0.55;;;16.90;59.70;;;;;;20794675;28;20112;-82
